Time;durP1;ratioP1;P1;durP2;ratioP2;P2;SDS_P1;SDS_P2;PMS_P1;PMS_P2;Temp;Humidity;BMP_temperature;BMP_pressure;BME280_temperature;BME280_humidity;BME280_pressure;Samples;Min_cycle;Max_cycle;Signal;HPM_P1;HPM_P2
2023/06/29 00:00:11;;;;;;;5.00;3.70;;;;;;;18.93;100.00;99131.06;5124299;27;20191;-78
2023/06/29 00:02:41;;;;;;;7.87;4.20;;;;;;;18.81;100.00;99144.69;5128131;27;20232;-77
2023/06/29 00:05:12;;;;;;;4.30;3.67;;;;;;;18.63;100.00;99126.88;5123168;27;20202;-78
2023/06/29 00:07:40;;;;;;;4.33;3.93;;;;;;;18.64;100.00;99133.91;5123937;27;20202;-77
2023/06/29 00:10:10;;;;;;;7.03;3.70;;;;;;;18.52;100.00;99133.25;5050539;28;20248;-77
2023/06/29 00:12:38;;;;;;;4.93;3.67;;;;;;;18.55;100.00;99135.66;5043935;28;20225;-78
2023/06/29 00:15:11;;;;;;;8.20;4.93;;;;;;;18.41;100.00;99133.44;5041746;28;20221;-77
2023/06/29 00:17:40;;;;;;;4.20;3.80;;;;;;;18.54;100.00;99139.34;5042259;28;20208;-77
2023/06/29 00:20:11;;;;;;;5.47;3.67;;;;;;;18.57;100.00;99129.13;5044623;28;20372;-78
2023/06/29 00:22:40;;;;;;;5.20;4.00;;;;;;;18.50;100.00;99125.34;5046529;28;20189;-77
2023/06/29 00:25:09;;;;;;;5.27;3.57;;;;;;;18.54;100.00;99126.75;5039679;28;20209;-77
2023/06/29 00:27:41;;;;;;;4.43;3.90;;;;;;;18.49;100.00;99118.31;5069368;28;20191;-77
2023/06/29 00:30:13;;;;;;;4.83;3.93;;;;;;;18.54;100.00;99123.25;5126050;27;20225;-77
2023/06/29 00:32:41;;;;;;;7.83;4.00;;;;;;;18.53;100.00;99127.75;5127209;27;20666;-77
2023/06/29 00:35:12;;;;;;;4.73;4.13;;;;;;;18.50;100.00;99130.72;5131139;27;20261;-77
2023/06/29 00:37:42;;;;;;;4.40;4.00;;;;;;;18.46;100.00;99128.50;5125746;27;20200;-77
2023/06/29 00:40:11;;;;;;;7.17;4.27;;;;;;;18.31;100.00;99123.59;5129451;27;20194;-77
2023/06/29 00:42:40;;;;;;;6.10;4.23;;;;;;;18.29;100.00;99122.06;5126478;27;20646;-77
2023/06/29 00:45:10;;;;;;;5.23;3.83;;;;;;;18.19;100.00;99116.75;5129298;27;20239;-77
2023/06/29 00:47:39;;;;;;;4.97;4.23;;;;;;;18.33;100.00;99115.41;5126750;27;20206;-77
2023/06/29 00:50:08;;;;;;;5.83;4.13;;;;;;;18.25;100.00;99116.19;5124698;27;20237;-78
2023/06/29 00:52:37;;;;;;;7.37;4.03;;;;;;;18.14;100.00;99115.50;5129281;27;20645;-77
2023/06/29 00:55:06;;;;;;;5.13;4.03;;;;;;;18.03;100.00;99112.00;5129316;27;20210;-77
2023/06/29 00:57:34;;;;;;;6.13;4.20;;;;;;;17.93;100.00;99110.34;5127649;27;20198;-77
2023/06/29 01:00:05;;;;;;;5.90;4.70;;;;;;;17.88;100.00;99116.16;5129193;27;20243;-77
2023/06/29 01:02:40;;;;;;;5.23;4.00;;;;;;;17.93;100.00;99115.72;5079648;27;20198;-77
2023/06/29 01:05:10;;;;;;;5.63;4.27;;;;;;;18.12;100.00;99112.13;5127412;27;20277;-77
2023/06/29 01:07:45;;;;;;;4.77;3.97;;;;;;;18.03;100.00;99103.97;5130712;27;20194;-77
2023/06/29 01:10:16;;;;;;;5.40;4.17;;;;;;;18.03;100.00;99112.00;5128211;27;20213;-77
2023/06/29 01:12:45;;;;;;;4.23;3.80;;;;;;;17.92;100.00;99109.50;5129088;27;20224;-77
2023/06/29 01:15:13;;;;;;;6.37;4.20;;;;;;;17.93;100.00;99102.31;5129043;27;20216;-77
2023/06/29 01:17:45;;;;;;;6.30;4.33;;;;;;;17.89;100.00;99114.34;5130641;27;20239;-77
2023/06/29 01:20:15;;;;;;;5.53;3.87;;;;;;;17.86;100.00;99107.44;5129625;27;20199;-77
2023/06/29 01:22:55;;;;;;;10.20;4.20;;;;;;;17.76;100.00;99103.94;5122549;27;20241;-77
2023/06/29 01:25:26;;;;;;;6.33;4.33;;;;;;;17.67;100.00;99108.28;5130304;27;20214;-77
2023/06/29 01:27:55;;;;;;;5.83;4.60;;;;;;;17.63;100.00;99106.88;5132863;27;20198;-77
2023/06/29 01:30:24;;;;;;;5.30;4.27;;;;;;;17.60;100.00;99100.97;5127696;27;20256;-78
2023/06/29 01:32:53;;;;;;;7.47;4.63;;;;;;;17.51;100.00;99102.69;5127130;27;20198;-77
2023/06/29 01:35:21;;;;;;;7.50;4.80;;;;;;;17.71;100.00;99098.16;5128209;27;20218;-77
2023/06/29 01:37:56;;;;;;;6.77;4.50;;;;;;;17.74;100.00;99103.22;5127076;27;20273;-77
2023/06/29 01:40:31;;;;;;;4.67;4.17;;;;;;;17.63;100.00;99101.53;5132542;27;20285;-77
2023/06/29 01:43:00;;;;;;;7.23;4.37;;;;;;;17.68;100.00;99095.75;5129840;27;20214;-77
2023/06/29 01:45:29;;;;;;;6.33;4.87;;;;;;;17.63;100.00;99103.34;5045736;28;20207;-77
2023/06/29 01:47:58;;;;;;;6.37;4.83;;;;;;;17.64;100.00;99103.22;5050472;28;20204;-78
2023/06/29 01:50:29;;;;;;;6.00;4.40;;;;;;;17.51;100.00;99104.50;5048401;28;20224;-77
2023/06/29 01:52:57;;;;;;;6.53;4.10;;;;;;;17.31;100.00;99103.69;5043585;28;20197;-77
2023/06/29 01:55:27;;;;;;;5.90;4.87;;;;;;;17.22;100.00;99100.03;5049773;28;20197;-77
2023/06/29 01:57:56;;;;;;;8.00;5.33;;;;;;;17.07;100.00;99096.94;5048050;28;20687;-77
2023/06/29 02:00:26;;;;;;;7.40;4.90;;;;;;;17.03;100.00;99103.56;5048470;28;20219;-77
2023/06/29 02:02:55;;;;;;;6.43;5.50;;;;;;;17.20;100.00;99088.63;5060649;27;20198;-77
2023/06/29 02:05:23;;;;;;;8.57;5.20;;;;;;;17.26;100.00;99098.75;5128166;27;20194;-77
2023/06/29 02:07:52;;;;;;;6.53;5.00;;;;;;;17.38;100.00;99097.63;5130731;27;20198;-77
2023/06/29 02:10:20;;;;;;;6.73;4.90;;;;;;;17.23;100.00;99108.91;5136294;27;20194;-77
2023/06/29 02:12:50;;;;;;;7.37;5.10;;;;;;;17.09;100.00;99104.84;5045947;28;20268;-77
2023/06/29 02:15:19;;;;;;;7.00;5.17;;;;;;;17.15;100.00;99113.13;5039540;28;20197;-77
2023/06/29 02:17:47;;;;;;;12.00;5.27;;;;;;;17.17;100.00;99099.59;5049372;28;20197;-77
2023/06/29 02:20:17;;;;;;;5.67;5.07;;;;;;;17.27;100.00;99099.59;5048894;28;20299;-77
2023/06/29 02:22:45;;;;;;;5.67;5.07;;;;;;;17.30;100.00;99096.66;5048741;28;20193;-76
2023/06/29 02:25:15;;;;;;;7.33;5.60;;;;;;;17.28;100.00;99093.28;5042953;28;20231;-77
2023/06/29 02:27:43;;;;;;;7.30;4.80;;;;;;;17.29;100.00;99092.28;5048554;28;20186;-77
2023/06/29 02:30:15;;;;;;;6.93;5.60;;;;;;;17.07;100.00;99091.56;5061253;27;20198;-76
2023/06/29 02:32:43;;;;;;;6.00;4.83;;;;;;;17.21;100.00;99084.13;5130455;27;20673;-77
2023/06/29 02:35:11;;;;;;;5.73;4.33;;;;;;;17.13;100.00;99083.00;5128211;27;20190;-77
2023/06/29 02:37:39;;;;;;;8.43;5.50;;;;;;;17.16;100.00;99085.38;5131868;27;20202;-77
2023/06/29 02:40:09;;;;;;;6.17;4.60;;;;;;;17.07;100.00;99077.34;5124848;27;20604;-77
2023/06/29 02:42:37;;;;;;;6.47;5.20;;;;;;;16.76;100.00;99080.16;5129760;27;20229;-77
2023/06/29 02:45:07;;;;;;;12.67;5.50;;;;;;;16.79;100.00;99084.38;5125946;27;20657;-77
2023/06/29 02:47:37;;;;;;;9.37;4.90;;;;;;;16.65;100.00;99082.09;5052373;28;20204;-77
2023/06/29 02:50:07;;;;;;;11.53;5.23;;;;;;;16.81;100.00;99075.25;5047057;28;20602;-77
2023/06/29 02:52:35;;;;;;;8.90;5.17;;;;;;;16.82;100.00;99068.06;4990141;28;20290;-76
2023/06/29 02:55:04;;;;;;;5.40;4.73;;;;;;;16.86;100.00;99075.66;4991716;28;20694;-77
2023/06/29 02:57:32;;;;;;;6.70;5.27;;;;;;;16.95;100.00;99073.97;4989373;28;20274;-77
2023/06/29 03:00:01;;;;;;;8.47;5.40;;;;;;;16.92;100.00;99068.91;4983705;28;20203;-77
2023/06/29 03:02:29;;;;;;;5.67;4.60;;;;;;;16.84;100.00;99066.94;4986090;28;20198;-77
2023/06/29 03:04:59;;;;;;;6.83;4.53;;;;;;;16.87;100.00;99068.47;4984629;28;20206;-77
2023/06/29 03:07:28;;;;;;;6.03;4.80;;;;;;;16.87;100.00;99071.16;4985413;28;20218;-77
2023/06/29 03:09:57;;;;;;;8.27;5.37;;;;;;;16.83;100.00;99069.75;4988472;28;20203;-77
2023/06/29 03:12:25;;;;;;;8.77;4.80;;;;;;;16.81;100.00;99061.03;4989994;28;20226;-76
2023/06/29 03:14:53;;;;;;;8.97;4.87;;;;;;;16.91;100.00;99061.03;4982048;28;20219;-77
2023/06/29 03:17:24;;;;;;;6.27;5.03;;;;;;;16.79;100.00;99068.31;5018200;28;20193;-77
2023/06/29 03:19:52;;;;;;;8.30;4.97;;;;;;;16.59;100.00;99059.41;5125828;27;20202;-77
2023/06/29 03:22:23;;;;;;;7.03;5.20;;;;;;;16.65;100.00;99066.03;5127341;27;20202;-77
2023/06/29 03:24:51;;;;;;;7.17;5.47;;;;;;;16.66;100.00;99070.41;5126909;27;20229;-77
2023/06/29 03:27:19;;;;;;;6.43;5.47;;;;;;;16.60;100.00;99064.63;5122901;27;20199;-77
2023/06/29 03:29:50;;;;;;;8.07;5.90;;;;;;;16.34;100.00;99071.47;5128362;27;20233;-76
2023/06/29 03:32:19;;;;;;;6.77;5.97;;;;;;;16.37;100.00;99075.69;5128245;27;20214;-77
2023/06/29 03:34:47;;;;;;;10.30;6.50;;;;;;;16.69;100.00;99075.50;5131734;27;20221;-77
2023/06/29 03:37:16;;;;;;;9.17;6.60;;;;;;;16.70;100.00;99077.22;5128077;27;20190;-77
2023/06/29 03:39:45;;;;;;;7.10;5.67;;;;;;;16.64;100.00;99077.72;5129971;27;20215;-76
2023/06/29 03:42:14;;;;;;;9.87;5.77;;;;;;;16.70;100.00;99070.03;5126888;27;20715;-76
2023/06/29 03:44:42;;;;;;;8.30;5.73;;;;;;;16.72;100.00;99075.25;5123285;27;20205;-77
2023/06/29 03:47:11;;;;;;;7.43;5.17;;;;;;;16.68;100.00;99071.09;5084181;28;20244;-77
2023/06/29 03:49:40;;;;;;;9.40;5.30;;;;;;;16.66;100.00;99071.25;5080823;28;20203;-77
2023/06/29 03:52:09;;;;;;;7.10;5.33;;;;;;;16.70;100.00;99071.88;5088894;28;20247;-77
2023/06/29 03:54:38;;;;;;;6.43;5.63;;;;;;;16.49;100.00;99075.44;5088095;28;20199;-77
2023/06/29 03:57:08;;;;;;;7.57;6.40;;;;;;;15.84;100.00;99075.94;5085713;28;20203;-77
2023/06/29 03:59:36;;;;;;;8.00;6.33;;;;;;;16.18;100.00;99080.00;5083658;28;20199;-77
2023/06/29 04:02:05;;;;;;;7.67;6.27;;;;;;;16.38;100.00;99075.56;5066938;28;20192;-77
2023/06/29 04:04:34;;;;;;;7.43;6.47;;;;;;;16.52;100.00;99066.31;5032524;28;20208;-77
2023/06/29 04:07:03;;;;;;;8.23;6.23;;;;;;;16.54;100.00;99065.19;5060484;28;20194;-77
2023/06/29 04:09:32;;;;;;;9.60;6.30;;;;;;;16.52;100.00;99064.47;5064522;28;20215;-77
2023/06/29 04:12:00;;;;;;;7.13;6.20;;;;;;;16.41;100.00;99061.09;5070684;28;20224;-77
2023/06/29 04:14:30;;;;;;;6.87;6.00;;;;;;;16.51;100.00;99061.94;5064093;28;20232;-76
2023/06/29 04:16:59;;;;;;;7.67;5.90;;;;;;;16.62;100.00;99059.16;5063796;28;20200;-77
2023/06/29 04:19:27;;;;;;;9.50;6.30;;;;;;;16.54;100.00;99065.19;5064499;28;20279;-76
2023/06/29 04:21:56;;;;;;;8.13;6.17;;;;;;;16.47;100.00;99058.69;5064433;28;20223;-77
2023/06/29 04:24:24;;;;;;;7.30;6.20;;;;;;;16.36;100.00;99066.00;5066683;28;20202;-76
2023/06/29 04:26:52;;;;;;;6.33;5.60;;;;;;;16.38;100.00;99061.34;5099007;27;20240;-76
2023/06/29 04:29:21;;;;;;;7.37;6.27;;;;;;;16.48;100.00;99059.53;5129434;27;20197;-76
2023/06/29 04:31:51;;;;;;;9.43;5.97;;;;;;;16.58;100.00;99058.56;5129917;27;20288;-77
2023/06/29 04:34:20;;;;;;;8.43;6.60;;;;;;;16.52;100.00;99056.47;5120453;27;20194;-77
2023/06/29 04:36:48;;;;;;;7.37;5.77;;;;;;;16.77;100.00;99057.75;5133756;27;20205;-77
2023/06/29 04:39:17;;;;;;;7.97;6.23;;;;;;;16.92;100.00;99063.56;5119101;27;20205;-77
2023/06/29 04:41:46;;;;;;;6.57;5.73;;;;;;;16.91;100.00;99055.69;5124867;27;20251;-77
2023/06/29 04:44:15;;;;;;;8.10;5.77;;;;;;;16.83;100.00;99062.56;5117751;27;20205;-77
2023/06/29 04:46:44;;;;;;;7.80;6.03;;;;;;;17.02;100.00;99061.72;5126154;27;20194;-77
2023/06/29 04:49:14;;;;;;;9.53;6.33;;;;;;;16.92;100.00;99070.75;5127959;27;20198;-77
2023/06/29 04:51:44;;;;;;;8.90;5.83;;;;;;;16.85;100.00;99060.59;5128032;27;20198;-76
2023/06/29 04:54:13;;;;;;;10.07;6.40;;;;;;;17.06;100.00;99059.59;5127813;27;20194;-77
2023/06/29 04:56:41;;;;;;;7.50;6.03;;;;;;;17.22;100.00;99056.34;5125977;27;20221;-77
2023/06/29 04:59:09;;;;;;;7.13;6.10;;;;;;;17.39;100.00;99048.44;5125197;27;20665;-77
2023/06/29 05:01:41;;;;;;;6.20;5.60;;;;;;;17.51;100.00;99045.59;5078752;28;20198;-76
2023/06/29 05:04:10;;;;;;;6.17;5.57;;;;;;;17.63;100.00;99039.06;5126769;28;20186;-77
2023/06/29 05:06:40;;;;;;;9.37;5.97;;;;;;;17.70;100.00;99040.22;5125621;27;20200;-77
2023/06/29 05:09:08;;;;;;;7.50;5.97;;;;;;;17.72;100.00;99041.75;5125803;27;20190;-77
2023/06/29 05:11:37;;;;;;;7.83;5.53;;;;;;;17.83;100.00;99040.72;5124226;27;20198;-77
2023/06/29 05:14:05;;;;;;;6.30;5.30;;;;;;;17.96;100.00;99046.59;5119188;27;20218;-77
2023/06/29 05:16:33;;;;;;;6.37;5.70;;;;;;;17.95;100.00;99034.19;5124394;27;20213;-76
2023/06/29 05:19:02;;;;;;;6.70;5.40;;;;;;;17.95;100.00;99033.31;5121638;27;20198;-77
2023/06/29 05:21:30;;;;;;;6.30;5.53;;;;;;;18.00;100.00;99036.41;5127560;27;20194;-77
2023/06/29 05:24:00;;;;;;;7.90;6.07;;;;;;;17.94;100.00;99035.16;5126465;27;20383;-77
2023/06/29 05:26:28;;;;;;;6.90;5.30;;;;;;;18.07;100.00;99039.38;5125314;27;20200;-77
2023/06/29 05:28:58;;;;;;;12.53;6.77;;;;;;;18.14;100.00;99040.44;5129056;27;20247;-77
2023/06/29 05:31:33;;;;;;;10.53;6.50;;;;;;;18.25;100.00;99037.56;5129462;27;20187;-77
2023/06/29 05:34:01;;;;;;;6.63;5.27;;;;;;;18.41;100.00;99036.91;5129891;27;20214;-77
2023/06/29 05:36:31;;;;;;;7.00;6.30;;;;;;;18.54;100.00;99034.72;5128994;27;20194;-77
2023/06/29 05:39:01;;;;;;;6.40;5.80;;;;;;;18.75;100.00;99029.06;5133140;27;20201;-77
2023/06/29 05:41:29;;;;;;;8.90;6.27;;;;;;;18.97;100.00;99025.91;5122422;27;20697;-78
2023/06/29 05:43:58;;;;;;;6.63;5.97;;;;;;;19.02;100.00;99037.03;5125245;27;20216;-77
2023/06/29 05:46:26;;;;;;;7.63;5.80;;;;;;;19.23;100.00;99025.13;5123660;27;20200;-77
2023/06/29 05:48:55;;;;;;;6.90;5.23;;;;;;;19.36;100.00;99036.28;5126386;27;20190;-76
2023/06/29 05:51:23;;;;;;;5.73;5.23;;;;;;;19.40;100.00;99035.00;5129996;27;20713;-77
2023/06/29 05:53:52;;;;;;;6.83;5.33;;;;;;;19.31;100.00;99027.88;5124845;27;20241;-77
2023/06/29 05:56:21;;;;;;;6.70;4.70;;;;;;;19.12;100.00;99027.06;5125931;27;20206;-77
2023/06/29 05:58:50;;;;;;;6.70;4.50;;;;;;;19.26;100.00;99019.44;5129954;27;20201;-78
2023/06/29 06:01:18;;;;;;;6.17;4.30;;;;;;;19.57;100.00;99020.66;5131034;27;20254;-77
2023/06/29 06:03:46;;;;;;;8.63;4.97;;;;;;;19.84;100.00;99016.97;5080875;27;20669;-77
2023/06/29 06:06:15;;;;;;;5.90;4.60;;;;;;;20.00;100.00;99014.34;5127359;27;20649;-77
2023/06/29 06:08:43;;;;;;;4.95;4.45;;;;;;;20.21;100.00;99007.69;5123425;27;20202;-77
2023/06/29 06:11:11;;;;;;;6.97;4.75;;;;;;;20.10;100.00;99003.47;5077118;27;20602;-78
2023/06/29 06:13:41;;;;;;;6.53;4.43;;;;;;;20.44;100.00;98998.03;5131849;27;20224;-77
2023/06/29 06:16:09;;;;;;;4.78;4.28;;;;;;;20.64;100.00;99003.13;5133469;27;20204;-77
2023/06/29 06:18:38;;;;;;;5.28;4.70;;;;;;;20.74;100.00;98993.03;5125153;27;20201;-77
2023/06/29 06:21:06;;;;;;;6.05;4.50;;;;;;;20.83;100.00;98998.25;5133187;27;20198;-78
2023/06/29 06:23:34;;;;;;;7.18;4.70;;;;;;;21.01;100.00;99005.34;5075458;27;20357;-77
2023/06/29 06:26:03;;;;;;;5.45;4.47;;;;;;;20.74;100.00;99009.19;5126451;27;20194;-77
2023/06/29 06:28:31;;;;;;;6.25;4.20;;;;;;;21.20;100.00;99004.16;5131881;27;20585;-77
2023/06/29 06:31:05;;;;;;;4.93;3.80;;;;;;;20.76;100.00;98989.19;5130811;27;20194;-76
2023/06/29 06:33:39;;;;;;;4.70;4.25;;;;;;;20.98;100.00;98994.91;5130876;27;20217;-77
2023/06/29 06:36:08;;;;;;;7.45;4.47;;;;;;;20.85;100.00;99001.66;5128523;27;20194;-78
2023/06/29 06:38:37;;;;;;;6.68;4.30;;;;;;;21.34;100.00;98998.97;5130385;27;20800;-77
2023/06/29 06:41:17;;;;;;;4.68;3.72;;;;;;;21.57;100.00;98990.97;5130418;27;20269;-77
2023/06/29 06:43:46;;;;;;;8.82;4.13;;;;;;;21.64;100.00;98991.13;5125575;27;20194;-77
2023/06/29 06:46:16;;;;;;;7.38;3.75;;;;;;;21.44;100.00;98996.06;5131839;27;20358;-77
2023/06/29 06:48:44;;;;;;;6.68;3.65;;;;;;;21.76;100.00;98997.00;5124109;27;20706;-77
2023/06/29 06:51:13;;;;;;;4.68;3.70;;;;;;;21.55;100.00;98993.00;5128881;27;20202;-77
2023/06/29 06:53:41;;;;;;;5.72;3.90;;;;;;;21.33;100.00;98985.66;5135664;27;20214;-77
2023/06/29 06:56:09;;;;;;;6.20;4.15;;;;;;;21.39;100.00;98985.78;5132599;27;20194;-77
2023/06/29 06:58:37;;;;;;;4.90;3.70;;;;;;;21.68;100.00;98992.47;5125953;27;20196;-77
2023/06/29 07:01:07;;;;;;;5.15;3.70;;;;;;;21.49;100.00;98993.69;5125417;27;20201;-77
2023/06/29 07:03:37;;;;;;;6.15;3.53;;;;;;;21.64;100.00;98985.75;5129738;27;20198;-77
2023/06/29 07:06:05;;;;;;;4.22;3.83;;;;;;;21.58;100.00;98998.06;5130579;27;20220;-77
2023/06/29 07:08:35;;;;;;;4.22;3.83;;;;;;;21.81;100.00;98989.22;5135350;27;20220;-77
2023/06/29 07:11:04;;;;;;;5.30;3.75;;;;;;;21.66;100.00;98995.34;5126553;27;20194;-77
2023/06/29 07:13:32;;;;;;;8.70;4.20;;;;;;;21.55;100.00;98984.94;5131069;27;20350;-77
2023/06/29 07:16:01;;;;;;;4.32;3.90;;;;;;;21.93;100.00;98985.97;5129626;27;20223;-77
2023/06/29 07:18:31;;;;;;;6.13;4.10;;;;;;;22.12;100.00;98987.44;5128612;27;20221;-76
2023/06/29 07:21:01;;;;;;;5.95;4.13;;;;;;;22.19;100.00;98988.41;5130983;27;20276;-77
2023/06/29 07:23:33;;;;;;;5.05;3.80;;;;;;;22.09;100.00;98987.78;5130314;27;20649;-77
2023/06/29 07:26:05;;;;;;;5.45;3.80;;;;;;;22.29;100.00;98988.19;5134834;27;20205;-77
2023/06/29 07:28:33;;;;;;;7.68;3.95;;;;;;;22.34;100.00;98980.41;5129409;27;20218;-77
2023/06/29 07:31:01;;;;;;;5.60;4.20;;;;;;;21.87;100.00;98978.56;5124979;27;20273;-77
2023/06/29 07:33:30;;;;;;;5.63;3.67;;;;;;;22.17;100.00;98976.94;5129876;27;20237;-77
2023/06/29 07:36:05;;;;;;;6.03;3.65;;;;;;;22.45;100.00;98974.59;5129941;27;20198;-76
2023/06/29 07:38:35;;;;;;;7.75;3.58;;;;;;;22.54;100.00;98968.13;5126527;27;20201;-77
2023/06/29 07:41:05;;;;;;;5.55;3.90;;;;;;;22.74;100.00;98967.66;5131462;27;20194;-77
2023/06/29 07:43:33;;;;;;;6.53;4.18;;;;;;;22.60;100.00;98973.84;5125511;27;20202;-77
2023/06/29 07:46:01;;;;;;;4.03;3.53;;;;;;;22.79;100.00;98959.84;5134520;27;20204;-77
2023/06/29 07:48:30;;;;;;;5.68;3.53;;;;;;;22.82;100.00;98954.91;5124467;27;20244;-77
2023/06/29 07:50:58;;;;;;;3.90;3.47;;;;;;;22.97;100.00;98960.41;5129978;27;20198;-77
2023/06/29 07:53:28;;;;;;;4.18;3.38;;;;;;;23.10;100.00;98957.91;5125948;27;20657;-77
2023/06/29 07:55:56;;;;;;;4.43;3.25;;;;;;;23.05;100.00;98956.78;5123608;27;20657;-77
2023/06/29 07:58:24;;;;;;;5.80;3.53;;;;;;;23.10;100.00;98952.50;5120113;27;20198;-77
2023/06/29 08:00:57;;;;;;;4.97;3.60;;;;;;;23.10;100.00;98957.09;5128832;27;20202;-77
2023/06/29 08:03:25;;;;;;;3.78;3.38;;;;;;;23.43;100.00;98944.06;5129698;27;20190;-77
2023/06/29 08:05:54;;;;;;;4.05;3.08;;;;;;;23.53;100.00;98947.31;5130283;27;20649;-77
2023/06/29 08:08:30;;;;;;;6.35;3.38;;;;;;;22.87;100.00;98959.78;5088219;28;20195;-76
2023/06/29 08:10:59;;;;;;;4.60;3.53;;;;;;;22.95;100.00;98954.31;5083759;28;20203;-76
2023/06/29 08:13:27;;;;;;;4.72;3.30;;;;;;;23.43;100.00;98942.19;5079594;28;20211;-76
2023/06/29 08:15:56;;;;;;;4.65;3.20;;;;;;;23.62;100.00;98951.66;5083950;28;20219;-77
2023/06/29 08:18:25;;;;;;;3.83;3.08;;;;;;;23.34;100.00;98943.31;5085800;28;20646;-77
2023/06/29 08:20:53;;;;;;;5.75;2.85;;;;;;;23.73;100.00;98942.22;5044746;28;20192;-77
2023/06/29 08:23:21;;;;;;;3.47;2.88;;;;;;;23.48;100.00;98948.94;5014714;28;20196;-77
2023/06/29 08:25:51;;;;;;;4.60;2.78;;;;;;;23.12;100.00;98960.44;4992151;28;20225;-76
2023/06/29 08:28:19;;;;;;;3.25;2.65;;;;;;;23.52;100.00;98958.34;4999117;28;20199;-77
2023/06/29 08:30:47;;;;;;;3.70;2.90;;;;;;;23.41;100.00;98952.38;5008095;28;20194;-77
2023/06/29 08:33:16;;;;;;;3.92;2.75;;;;;;;23.54;100.00;98954.41;5010579;28;20277;-77
2023/06/29 08:35:45;;;;;;;3.38;2.70;;;;;;;23.46;100.00;98949.13;5008925;28;20218;-77
2023/06/29 08:38:13;;;;;;;3.35;2.75;;;;;;;23.35;100.00;98957.66;5015396;28;20277;-77
2023/06/29 08:40:46;;;;;;;4.57;2.90;;;;;;;23.24;100.00;98950.00;5064485;28;20378;-77
2023/06/29 08:43:17;;;;;;;5.13;2.88;;;;;;;23.37;100.00;98958.34;5077403;27;20637;-77
2023/06/29 08:45:46;;;;;;;4.68;2.97;;;;;;;23.96;100.00;98952.94;5133652;27;20194;-77
2023/06/29 08:48:16;;;;;;;5.25;3.13;;;;;;;24.29;100.00;98947.91;5130763;27;20193;-77
2023/06/29 08:50:48;;;;;;;4.03;2.85;;;;;;;24.31;97.30;98945.00;5126685;28;20198;-78
2023/06/29 08:53:17;;;;;;;3.42;2.63;;;;;;;24.12;98.24;98949.16;5128868;27;20194;-77
2023/06/29 08:55:45;;;;;;;3.10;2.80;;;;;;;24.57;96.62;98944.50;5119502;27;20708;-77
2023/06/29 08:58:14;;;;;;;5.28;3.20;;;;;;;24.67;96.75;98932.28;5121349;28;20221;-77
2023/06/29 09:00:45;;;;;;;4.45;3.17;;;;;;;24.69;96.34;98934.81;5125368;27;20648;-77
2023/06/29 09:03:15;;;;;;;4.10;3.40;;;;;;;24.78;89.19;98939.91;5126647;27;20251;-78
2023/06/29 09:05:45;;;;;;;5.95;3.20;;;;;;;24.89;89.88;98938.53;5093966;28;20299;-78
2023/06/29 09:08:14;;;;;;;5.90;3.70;;;;;;;25.16;90.10;98928.78;5126711;27;20226;-78
2023/06/29 09:10:46;;;;;;;4.30;3.22;;;;;;;25.39;89.04;98933.97;5123362;27;20692;-78
2023/06/29 09:13:15;;;;;;;3.30;3.00;;;;;;;25.50;88.58;98938.00;5064163;28;20292;-78
2023/06/29 09:15:45;;;;;;;4.78;3.35;;;;;;;25.39;87.72;98931.25;5069868;28;20286;-78
2023/06/29 09:18:14;;;;;;;5.50;3.50;;;;;;;25.47;87.13;98925.63;5069737;28;20207;-78
2023/06/29 09:20:44;;;;;;;6.15;4.15;;;;;;;25.64;84.13;98924.28;5063447;28;20210;-79
2023/06/29 09:23:14;;;;;;;5.20;3.78;;;;;;;25.90;82.54;98925.50;5061671;28;20188;-78
2023/06/29 09:25:43;;;;;;;6.35;4.30;;;;;;;25.94;81.73;98929.47;5035841;28;20203;-78
2023/06/29 09:28:12;;;;;;;6.07;4.80;;;;;;;25.40;84.50;98912.06;5068307;28;20254;-79
2023/06/29 09:30:41;;;;;;;11.07;6.38;;;;;;;24.82;83.84;98913.28;5080607;27;20182;-79
2023/06/29 09:33:12;;;;;;;8.27;5.50;;;;;;;25.29;82.90;98909.91;5130135;27;20194;-79
2023/06/29 09:35:44;;;;;;;7.05;5.40;;;;;;;25.63;78.46;98903.63;5132688;27;20225;-78
2023/06/29 09:38:15;;;;;;;9.02;6.68;;;;;;;26.00;71.25;98901.53;5126842;27;20322;-79
2023/06/29 09:40:47;;;;;;;6.93;5.32;;;;;;;26.13;73.34;98898.00;5131067;27;20198;-78
2023/06/29 09:43:17;;;;;;;8.00;5.55;;;;;;;26.25;73.31;98899.09;5131305;27;20226;-78
2023/06/29 09:45:46;;;;;;;7.25;5.20;;;;;;;26.52;73.40;98900.81;5124486;27;20194;-79
2023/06/29 09:48:22;;;;;;;7.75;5.80;;;;;;;26.25;72.02;98894.50;5081170;27;20190;-79
2023/06/29 09:50:55;;;;;;;8.23;5.22;;;;;;;26.73;69.00;98901.69;5134812;27;20198;-79
2023/06/29 09:53:31;;;;;;;6.72;5.35;;;;;;;26.94;69.40;98895.22;5133828;27;20198;-79
2023/06/29 09:56:01;;;;;;;6.85;4.85;;;;;;;26.15;73.04;98899.50;5125082;27;20213;-79
2023/06/29 09:58:31;;;;;;;6.85;5.15;;;;;;;25.32;71.90;98898.66;5135517;27;20206;-78
2023/06/29 10:01:01;;;;;;;8.20;5.25;;;;;;;25.78;69.53;98900.81;5124081;27;20646;-78
2023/06/29 10:03:32;;;;;;;6.60;5.05;;;;;;;25.85;70.09;98890.78;5132199;27;20202;-78
2023/06/29 10:06:08;;;;;;;7.72;5.43;;;;;;;26.03;70.42;98892.97;5128101;27;20194;-78
2023/06/29 10:08:37;;;;;;;5.90;4.85;;;;;;;26.39;71.40;98884.50;5131658;27;20201;-79
2023/06/29 10:11:07;;;;;;;7.60;5.20;;;;;;;25.91;74.14;98886.44;5132045;27;20247;-77
2023/06/29 10:13:41;;;;;;;9.65;4.93;;;;;;;25.45;73.24;98884.31;5126325;27;20206;-78
2023/06/29 10:16:11;;;;;;;6.57;5.15;;;;;;;25.10;77.89;98878.91;5126077;27;20219;-78
2023/06/29 10:18:47;;;;;;;6.38;5.32;;;;;;;25.59;79.01;98886.09;5129170;27;20199;-78
2023/06/29 10:21:17;;;;;;;7.45;5.07;;;;;;;25.95;75.33;98880.41;5136229;27;20277;-78
2023/06/29 10:23:50;;;;;;;8.50;5.10;;;;;;;25.64;77.34;98880.88;5129567;27;20205;-78
2023/06/29 10:26:20;;;;;;;7.90;5.50;;;;;;;25.19;81.63;98881.44;5128134;27;20197;-78
2023/06/29 10:28:48;;;;;;;7.65;5.22;;;;;;;25.44;81.02;98885.38;5131926;27;20198;-78
2023/06/29 10:31:18;;;;;;;8.23;6.07;;;;;;;25.29;78.72;98880.09;5133269;27;20194;-78
2023/06/29 10:33:50;;;;;;;8.07;5.72;;;;;;;25.22;78.35;98881.91;5132119;27;20251;-79
2023/06/29 10:36:19;;;;;;;9.77;6.07;;;;;;;25.46;74.46;98872.44;5128140;27;20214;-78
2023/06/29 10:38:47;;;;;;;7.88;5.10;;;;;;;25.68;77.08;98884.88;5126990;27;20258;-78
2023/06/29 10:41:26;;;;;;;10.27;5.65;;;;;;;25.73;79.97;98880.75;5131849;27;20187;-79
2023/06/29 10:43:56;;;;;;;7.72;5.43;;;;;;;25.68;79.02;98867.75;5131460;27;20194;-79
2023/06/29 10:46:48;;;;;;;6.63;5.38;;;;;;;25.90;74.71;98869.34;5128944;27;20253;-78
2023/06/29 10:49:26;;;;;;;8.52;5.50;;;;;;;25.51;72.74;98869.13;5126921;27;20202;-78
2023/06/29 10:51:55;;;;;;;8.95;6.18;;;;;;;25.02;72.67;98872.81;5126142;27;20201;-79
2023/06/29 10:54:24;;;;;;;7.38;5.47;;;;;;;25.62;73.25;98860.41;5130969;27;20198;-78
2023/06/29 10:57:00;;;;;;;7.65;5.57;;;;;;;25.78;74.00;98860.09;5127159;27;20330;-78
2023/06/29 10:59:31;;;;;;;8.23;5.63;;;;;;;26.48;67.69;98856.13;5130928;27;20185;-79
2023/06/29 11:02:00;;;;;;;7.05;4.97;;;;;;;26.70;61.06;98864.88;5132657;27;20281;-78
2023/06/29 11:04:30;;;;;;;7.65;5.65;;;;;;;25.91;65.09;98854.72;5132869;27;20306;-78
2023/06/29 11:07:05;;;;;;;6.47;5.63;;;;;;;25.35;64.85;98860.28;5121394;27;20229;-78
2023/06/29 11:09:34;;;;;;;9.63;5.95;;;;;;;25.73;69.94;98859.03;5064445;28;20203;-79
2023/06/29 11:12:03;;;;;;;7.75;5.32;;;;;;;25.84;70.79;98859.28;5069999;28;20211;-78
2023/06/29 11:14:38;;;;;;;6.45;5.50;;;;;;;25.88;71.24;98860.56;5066363;28;20284;-78
2023/06/29 11:17:07;;;;;;;7.40;5.30;;;;;;;25.91;73.50;98857.44;5072278;28;20219;-78
2023/06/29 11:19:43;;;;;;;6.88;5.10;;;;;;;26.15;74.92;98847.03;5073218;28;20207;-79
2023/06/29 11:22:16;;;;;;;6.80;5.15;;;;;;;26.38;72.60;98849.41;5065076;28;20215;-79
2023/06/29 11:24:45;;;;;;;6.88;5.55;;;;;;;25.89;77.48;98847.81;5071754;28;20248;-78
2023/06/29 11:27:17;;;;;;;7.47;5.05;;;;;;;25.95;77.29;98849.69;5083851;27;20190;-77
2023/06/29 11:29:45;;;;;;;7.13;5.47;;;;;;;25.18;82.72;98853.50;5126139;27;20201;-77
2023/06/29 11:32:14;;;;;;;7.18;5.35;;;;;;;25.42;81.98;98848.63;5131958;27;20212;-78
2023/06/29 11:34:46;;;;;;;7.50;5.00;;;;;;;24.86;88.87;98849.50;5129007;27;20229;-78
2023/06/29 11:37:14;;;;;;;8.88;5.50;;;;;;;24.84;89.65;98854.28;5127651;27;20729;-78